KASX

John F Kennedy Memorial Airport

Ashland, Wisconsin, USA
METAR KASX 240353Z AUTO 05007KT 10SM OVC006 09/09 A3010 RMK AO2 SLP198 T00940089
Observed Flight Rules
Sep-24 @ 03:53 UTC (41 minutes ago) Instrument Flight Rules
Wind Visibility Clouds
50° at 7 knots 10 miles
  • Overcast at 600' AGL
Temperatures Readings
Current 9°C / 48°F
Dewpoint 9°C / 48°F
Humidity 100%
Altimeter 30.1" Hg
Pressure 1019.8 hPa
Elevation 251
METAR KASX 240353Z AUTO 05007KT 10SM OVC006 09/09 A3010 RMK AO2 SLP198 T00940089
Observed Flight Rules
Sep-24 @ 03:53 UTC
(41 minutes ago)
IFR
Wind Visibility
50° at 7 knots 10 miles
Clouds
  • Overcast at 600' AGL
Temperature Dewpoint
9°C / 48°F 9°C / 48°F
Humidity Altimeter Pressure
100% 30.1" Hg 1019.8 hPa